• Join FlightAware (Why Join?)
  • Login
  • US Flag 
09:46AM EDT


 

Airport Tracker/Info


-or-


 

Live Flight TrackerFlight Track Log ✈ AWE3997 ✈ 07-Jul-2013 ✈ KPWM - KPHL

Flight Track Log - Related Links

Times and Time Zones

All times are in EDT time to prevent confusion due to time zone crossing. See the AWE3997 flight status page for this flight to view local times or setup timezone preferences in your user account.

Time Position Orientation Groundspeed Altitude Reporting Facility
EDT Latitude Longitude Course Direction KTS MPH feet Rate Location/Type
09:21PM 43.5398 -70.1551 226° Southwest  Level FlightAware Approximate
09:21PM 43.5958 -70.1064 194° South 311 358 5,100  Level Boston Center
09:22PM 43.4715 -70.2528 226° Southwest  Level FlightAware Approximate
09:22PM 43.5428 -70.1631 218° Southwest 257 296 6,900  Level Boston Center
09:23PM 43.4105 -70.3586 226° Southwest  Level FlightAware Approximate
09:23PM 43.4903 -70.2508 231° Southwest 263 303 9,300  Level Boston Center
09:24PM 43.3415 -70.4552 226° Southwest  Level FlightAware Approximate
09:24PM 43.4436 -70.3211 228° Southwest 277 319 11,300  Level Boston Center
09:25PM 43.2798 -70.5605 232° Southwest  Level FlightAware Approximate
09:25PM 43.3828 -70.4175 229° Southwest 299 344 12,100  Level Boston Center
09:26PM 43.2042 -70.6458 216° Southwest  Level FlightAware Approximate
09:26PM 43.3281 -70.5022 228° Southwest 324 373 13,500  Level Boston Center
09:27PM 43.1315 -70.7339 194° South  Level FlightAware Approximate
09:27PM 43.2589 -70.6069 228° Southwest 331 381 14,700  Level Boston Center
09:28PM 43.1956 -70.6828 221° Southwest 344 396 16,000 1,080 Climbing Boston Center
09:29PM 43.1028 -70.7622 212° Southwest 350 403 16,900 900 Climbing Boston Center
09:30PM 43.0244 -70.8214 209° Southwest 357 411 17,800 900 Climbing Boston Center
09:31PM 42.9256 -70.8892 207° Southwest 362 417 18,700 780 Climbing Boston Center
09:32PM 42.8450 -70.9478 208° Southwest 362 417 19,400 720 Climbing Boston Center
09:33PM 42.7478 -71.0008 202° Southwest 368 423 20,200 1,260 Climbing Boston Center
09:34PM 42.6544 -71.0456 199° South 373 429 22,000 1,260 Climbing Boston Center
09:35PM 42.5797 -71.0811 199° South 367 422 22,800 720 Climbing Boston Center
09:36PM 42.4681 -71.1369 200° South 362 417 23,500 780 Climbing Boston Center
09:37PM 42.3811 -71.2033 209° Southwest 367 422 24,400 720 Climbing Boston Center
09:38PM 42.2967 -71.2836 215° Southwest 367 422 25,000 600 Climbing Boston Center
09:39PM 42.2325 -71.3464 216° Southwest 367 422 25,600 600 Climbing Boston Center
09:40PM 42.1314 -71.4464 216° Southwest 372 428 26,200 600 Climbing Boston Center
09:41PM 42.0486 -71.5286 216° Southwest 378 435 26,800 540 Climbing Boston Center
09:42PM 41.9681 -71.5997 213° Southwest 378 435 27,300 480 Climbing Boston Center
09:43PM 41.8644 -71.7014 216° Southwest 383 441 27,800 300 Climbing Boston Center
09:44PM 41.7794 -71.7831 216° Southwest 383 441 28,000 60 Climbing Boston Center
09:45PM 41.6883 -71.8703 216° Southwest 383 441 28,000  Level Boston Center
09:46PM 41.5992 -71.9569 216° Southwest 390 449 28,000  Level Boston Center
09:47PM 41.5078 -72.0464 216° Southwest 403 464 28,000  Level Boston Center
09:48PM 41.4142 -72.1328 215° Southwest 409 471 28,000  Level Boston Center
09:49PM 41.3206 -72.2244 216° Southwest 415 478 28,000  Level Boston Center
09:50PM 41.2269 -72.3131 215° Southwest 415 478 28,000  Level Boston Center
09:51PM 41.1333 -72.4042 216° Southwest 420 483 28,000 -420 Level Boston Center
09:52PM 41.0478 -72.4842 215° Southwest 425 489 27,200 -900 Descending Boston Center
09:53PM 40.9497 -72.5747 215° Southwest 430 495 26,200 -600 Descending Boston Center
09:54PM 40.8558 -72.6650 216° Southwest 430 495 26,000 -120 Descending Boston Center
09:55PM 40.7619 -72.7525 215° Southwest 430 495 26,000 -1,020 Level Boston Center
09:58PM 40.5628 -72.9375 215° Southwest 409 471 22,800 -1,560 Descending New York Center
09:59PM 40.4736 -73.0219 216° Southwest 402 463 21,200 -1,440 Descending New York Center
10:00PM 40.3908 -73.0983 215° Southwest 390 449 20,000 -600 Descending New York Center
10:01PM 40.3061 -73.1742 214° Southwest 380 437 20,000  Level New York Center
10:02PM 40.2211 -73.2528 215° Southwest 380 437 20,000  Level New York Center
10:03PM 40.1381 -73.3339 217° Southwest 380 437 20,000  Level New York Center
10:04PM 40.0508 -73.4067 213° Southwest 380 437 20,000  Level New York Center
10:05PM 39.9636 -73.4847 214° Southwest 385 443 20,000  Level New York Center
10:06PM 39.8847 -73.5681 219° Southwest 380 437 20,000  Level New York Center
10:07PM 39.7986 -73.7064 231° Southwest 377 434 20,000 -420 Level Washington Center
10:08PM 39.7356 -73.8081 231° Southwest 377 434 19,100 -1,200 Descending Washington Center
10:09PM 39.6703 -73.9067 229° Southwest 365 420 17,600 -1,620 Descending Washington Center
10:10PM 39.6092 -74.0025 230° Southwest 351 404 15,900 -1,680 Descending Washington Center
10:11PM 39.5439 -74.1061 231° Southwest 351 404 14,300 -960 Descending Washington Center
10:12PM 39.5225 -74.2303 257° West 334 384 14,000 -180 Descending Washington Center
10:13PM 39.5278 -74.3567 273° West 340 391 14,000 -1,080 Level Washington Center
10:15PM 39.5333 -74.5667 272° West 291 335 11,100 -1,680 Descending Philadelphia TRACON
10:16PM 39.5333 -74.6667 270° West 266 306 9,400 -1,140 Descending Philadelphia TRACON
10:17PM 39.5333 -74.7500 270° West 256 295 9,000 -780 Descending Philadelphia TRACON
10:18PM 39.5333 -74.8500 270° West 260 299 8,000 -720 Descending Philadelphia TRACON
10:19PM 39.5333 -74.9333 270° West 258 297 7,600 -960 Descending Philadelphia TRACON
10:20PM 39.5667 -75.0333 293° West 260 299 6,000 -960 Descending Philadelphia TRACON
10:21PM 39.6000 -75.1000 303° West 264 304 5,800 -1,020 Descending Philadelphia TRACON
10:22PM 39.6500 -75.1667 314° West 230 265 4,100 -1,740 Descending Philadelphia TRACON